sensor_id;sensor_type;location;lat;lon;timestamp;pressure;altitude;pressure_sealevel;temperature;humidity
79780;BME280;69258;52.050;10.334;2023-11-21T00:04:34;99041.09;;;20.40;58.58
79780;BME280;69258;52.050;10.334;2023-11-21T00:19:36;99046.91;;;20.37;58.39
79780;BME280;69258;52.050;10.334;2023-11-21T00:34:37;99054.53;;;20.34;58.83
79780;BME280;69258;52.050;10.334;2023-11-21T00:49:40;99064.03;;;20.30;58.75
79780;BME280;69258;52.050;10.334;2023-11-21T01:04:43;99078.84;;;20.26;58.27
79780;BME280;69258;52.050;10.334;2023-11-21T01:19:46;99073.31;;;20.20;58.30
79780;BME280;69258;52.050;10.334;2023-11-21T01:34:50;99085.28;;;20.18;58.64
79780;BME280;69258;52.050;10.334;2023-11-21T01:49:52;99101.72;;;20.22;57.69
79780;BME280;69258;52.050;10.334;2023-11-21T02:04:54;99107.06;;;20.28;58.04
79780;BME280;69258;52.050;10.334;2023-11-21T02:19:57;99111.75;;;20.33;58.15
79780;BME280;69258;52.050;10.334;2023-11-21T02:35:00;99118.13;;;20.38;57.68
79780;BME280;69258;52.050;10.334;2023-11-21T02:50:03;99115.59;;;20.43;57.26
79780;BME280;69258;52.050;10.334;2023-11-21T03:05:07;99122.16;;;20.47;57.65
79780;BME280;69258;52.050;10.334;2023-11-21T03:20:10;99130.56;;;20.51;57.63
79780;BME280;69258;52.050;10.334;2023-11-21T03:35:13;99154.25;;;20.54;57.40
79780;BME280;69258;52.050;10.334;2023-11-21T03:50:16;99161.00;;;20.56;57.33
79780;BME280;69258;52.050;10.334;2023-11-21T04:05:19;99176.88;;;20.58;57.21
79780;BME280;69258;52.050;10.334;2023-11-21T04:20:22;99185.28;;;20.61;56.82
79780;BME280;69258;52.050;10.334;2023-11-21T04:35:25;99192.88;;;20.64;56.69
79780;BME280;69258;52.050;10.334;2023-11-21T04:50:27;99203.16;;;20.67;56.93
79780;BME280;69258;52.050;10.334;2023-11-21T05:05:30;99228.06;;;20.68;56.91
79780;BME280;69258;52.050;10.334;2023-11-21T05:20:32;99242.03;;;20.70;56.99
79780;BME280;69258;52.050;10.334;2023-11-21T05:35:35;99257.91;;;20.72;57.07
79780;BME280;69258;52.050;10.334;2023-11-21T05:50:38;99257.91;;;20.72;57.27
79780;BME280;69258;52.050;10.334;2023-11-21T06:05:41;99279.31;;;20.72;57.01
79780;BME280;69258;52.050;10.334;2023-11-21T06:20:44;99301.13;;;20.75;58.23
79780;BME280;69258;52.050;10.334;2023-11-21T06:35:46;99318.47;;;20.73;57.89
79780;BME280;69258;52.050;10.334;2023-11-21T06:50:52;99334.72;;;20.71;57.98
79780;BME280;69258;52.050;10.334;2023-11-21T07:05:54;99348.75;;;20.66;57.70
79780;BME280;69258;52.050;10.334;2023-11-21T07:20:57;99372.25;;;20.64;57.56
79780;BME280;69258;52.050;10.334;2023-11-21T07:35:59;99393.47;;;20.59;58.04
79780;BME280;69258;52.050;10.334;2023-11-21T07:51:02;99424.59;;;20.54;57.52
79780;BME280;69258;52.050;10.334;2023-11-21T08:06:05;99442.91;;;20.50;57.57
79780;BME280;69258;52.050;10.334;2023-11-21T08:21:07;99470.28;;;20.52;57.43
79780;BME280;69258;52.050;10.334;2023-11-21T08:36:10;99483.47;;;20.54;57.05
79780;BME280;69258;52.050;10.334;2023-11-21T08:51:13;99510.84;;;20.56;56.82
79780;BME280;69258;52.050;10.334;2023-11-21T09:06:16;99539.25;;;20.57;56.82
79780;BME280;69258;52.050;10.334;2023-11-21T09:21:18;99555.94;;;20.59;56.77
79780;BME280;69258;52.050;10.334;2023-11-21T09:36:21;99577.75;;;20.62;56.79
79780;BME280;69258;52.050;10.334;2023-11-21T09:51:26;99604.13;;;20.65;56.56
79780;BME280;69258;52.050;10.334;2023-11-21T10:06:28;99619.16;;;20.66;56.64
79780;BME280;69258;52.050;10.334;2023-11-21T10:21:32;99636.25;;;20.65;56.73
79780;BME280;69258;52.050;10.334;2023-11-21T10:36:35;99652.94;;;20.67;56.74
79780;BME280;69258;52.050;10.334;2023-11-21T10:51:43;99671.25;;;20.71;56.56
79780;BME280;69258;52.050;10.334;2023-11-21T11:06:54;99696.41;;;20.70;56.75
79780;BME280;69258;52.050;10.334;2023-11-21T11:37:13;99728.72;;;20.75;56.44
79780;BME280;69258;52.050;10.334;2023-11-21T12:22:51;99762.53;;;20.76;56.94
79780;BME280;69258;52.050;10.334;2023-11-21T12:37:55;99787.47;;;20.76;55.95
79780;BME280;69258;52.050;10.334;2023-11-21T12:53:00;99810.50;;;20.77;56.15
79780;BME280;69258;52.050;10.334;2023-11-21T13:08:03;99811.34;;;20.78;56.69
79780;BME280;69258;52.050;10.334;2023-11-21T13:23:10;99822.88;;;20.78;56.06
79780;BME280;69258;52.050;10.334;2023-11-21T13:38:16;99845.31;;;20.77;56.03
79780;BME280;69258;52.050;10.334;2023-11-21T13:53:19;99849.88;;;20.77;56.29
79780;BME280;69258;52.050;10.334;2023-11-21T14:08:21;99876.66;;;20.77;55.77
79780;BME280;69258;52.050;10.334;2023-11-21T14:23:23;99928.34;;;20.77;55.90
79780;BME280;69258;52.050;10.334;2023-11-21T14:38:26;99942.78;;;20.76;55.80
79780;BME280;69258;52.050;10.334;2023-11-21T14:53:28;99960.69;;;20.76;56.29
79780;BME280;69258;52.050;10.334;2023-11-21T15:08:32;99975.94;;;20.75;56.17
79780;BME280;69258;52.050;10.334;2023-11-21T15:23:34;99992.19;;;20.74;56.08
79780;BME280;69258;52.050;10.334;2023-11-21T15:38:37;100015.28;;;20.75;56.14
79780;BME280;69258;52.050;10.334;2023-11-21T15:53:39;100031.34;;;20.75;56.34
79780;BME280;69258;52.050;10.334;2023-11-21T16:08:42;100047.41;;;20.75;56.10
79780;BME280;69258;52.050;10.334;2023-11-21T16:23:44;100062.63;;;20.74;55.81
79780;BME280;69258;52.050;10.334;2023-11-21T16:38:50;100107.34;;;20.74;55.77
79780;BME280;69258;52.050;10.334;2023-11-21T16:53:52;100137.63;;;20.74;55.65
79780;BME280;69258;52.050;10.334;2023-11-21T17:08:54;100159.88;;;20.75;55.19
79780;BME280;69258;52.050;10.334;2023-11-21T17:23:57;100188.94;;;20.78;55.10
79780;BME280;69258;52.050;10.334;2023-11-21T17:39:00;100218.22;;;20.79;55.34
79780;BME280;69258;52.050;10.334;2023-11-21T17:54:03;100226.72;;;20.83;55.22
79780;BME280;69258;52.050;10.334;2023-11-21T18:09:06;100246.09;;;20.85;55.68
79780;BME280;69258;52.050;10.334;2023-11-21T18:24:09;100260.97;;;20.87;55.25
79780;BME280;69258;52.050;10.334;2023-11-21T18:39:12;100307.97;;;20.90;55.52
79780;BME280;69258;52.050;10.334;2023-11-21T18:54:15;100325.50;;;20.92;55.42
79780;BME280;69258;52.050;10.334;2023-11-21T19:09:18;100346.56;;;20.95;55.34
79780;BME280;69258;52.050;10.334;2023-11-21T19:24:21;100364.28;;;20.96;55.72
79780;BME280;69258;52.050;10.334;2023-11-21T19:39:23;100374.81;;;20.98;55.75
79780;BME280;69258;52.050;10.334;2023-11-21T19:54:26;100399.56;;;21.00;55.34
79780;BME280;69258;52.050;10.334;2023-11-21T20:09:29;100413.63;;;21.02;55.91
79780;BME280;69258;52.050;10.334;2023-11-21T20:24:31;100452.59;;;21.04;55.50
79780;BME280;69258;52.050;10.334;2023-11-21T20:39:34;100455.66;;;21.01;55.41
79780;BME280;69258;52.050;10.334;2023-11-21T20:54:37;100467.59;;;20.99;55.24
79780;BME280;69258;52.050;10.334;2023-11-21T21:09:39;100487.72;;;20.95;55.64
79780;BME280;69258;52.050;10.334;2023-11-21T21:24:42;100521.25;;;20.91;55.73
79780;BME280;69258;52.050;10.334;2023-11-21T21:39:45;100537.06;;;20.86;55.86
79780;BME280;69258;52.050;10.334;2023-11-21T21:54:47;100566.59;;;20.78;55.98
79780;BME280;69258;52.050;10.334;2023-11-21T22:09:51;100564.66;;;20.72;56.00
79780;BME280;69258;52.050;10.334;2023-11-21T22:24:54;100597.34;;;20.67;55.87
79780;BME280;69258;52.050;10.334;2023-11-21T22:39:56;100608.44;;;20.64;56.22
79780;BME280;69258;52.050;10.334;2023-11-21T22:54:58;100605.66;;;20.57;56.35
79780;BME280;69258;52.050;10.334;2023-11-21T23:10:01;100608.41;;;20.49;55.62
79780;BME280;69258;52.050;10.334;2023-11-21T23:25:04;100594.91;;;20.43;55.93
79780;BME280;69258;52.050;10.334;2023-11-21T23:40:07;100588.44;;;20.37;55.82
79780;BME280;69258;52.050;10.334;2023-11-21T23:55:11;100605.38;;;20.30;56.00
